Tinker Air Force Base
KTIK : now visible

Airfield :











YOU CAN JOIN US ON...

 
LOGIN :

Register | Disclaimer

   EN    FR    IT 

 









Legend :    VFR   Marginal VFR   IFR   Intensive IFR   Very Intensive IFR
Visi :
Ceiling :
>= 8 km
>= 3000ft
5 to 8 km
1000 to 3000 ft
1500m to 5 km
500 to 1000 ft
800 to 1500m
200 to 500 ft
< 800m
< 200 ft
Symbols :   Thunderstorms  Fog  Heavy snow  Heavy precipitations  Wind > 20 kt






- Airport Elevation : 1291 ft


KTIK - Tinker Air Force Base

CURRENT METAR :
  • 231456Z AUTO 17012KT 10SM CLR 08/06 A2999 RMK AO2 SLP164 60001 T00750060 53007

EXPIRED METARs :
  • 231356Z AUTO 17009KT 10SM CLR 07/05 A2998 RMK AO2 SLP161 T00740052
  • 231256Z AUTO 16008KT 10SM CLR 07/04 A2997 RMK AO2 RAE07 SLP156 P0001 T00730044

TAF TAF KTIK
Valid from the 23 at 10:00 until the 24 at 16:00 UTC


231000Z 2310/2416 17006KT 9999 FEW085 QNH2999INS
BECMG 2318/2319 18012G18KT 9999 FEW005 QNH2993INS
BECMG 2323/2324 16009KT 8000 -SHRA OVC003 510032 QNH2981INS
BECMG 2401/2402 16006KT 8000 BR OVC003 520053 QNH2962INS
BECMG 2410/2411 24009KT 9000 BR OVC009 510013 QNH2960INS
BECMG 2412/2413 25009KT 9999 NSW OVC016 510023 QNH2962INS TX11/2406Z TN07/2312Z



MET'MAP, your aeronautical weather chart ! - Copyright ORBIFLY December 2007 - Disclaimer

ORBIFLY MET'MAP TEAM :

Programming & Development : Alexandra Zaïnal
Concept & original design : Baudouin d'Aumeries
Assistance for programming : Marc-Olivier Méhu
Technical & hardware support : Manuel Goepfert

Contact : metmap@orbifly.com




SOURCES & CREDITS :

   NOAA       Earth
Advisory